Terminal Aerodrome Forecast
Issued by NWS

Current Version | Previous Version | Text Only | Print | Product List | Glossary Off
Versions: 1 2 3 4 5 6 7 8 9 10 11 12 13

000
FTUS44 KSJT 190520
TAFBBD
TAF
KBBD 190520Z 1906/2006 22004KT P6SM SCT030
     FM190900 19006KT P6SM BKN012
     FM191500 19010KT P6SM SCT015
      AMD NOT SKED=

USA.gov is the U.S. government's official web portal to all federal, state and local government web resources and services.